sensor_id;sensor_type;location;lat;lon;timestamp;pressure;altitude;pressure_sealevel;temperature
26158;BMP280;67284;44.782;10.282;2023-08-12T00:02:57;101469.16;;;24.60
26158;BMP280;67284;44.782;10.282;2023-08-12T00:07:49;101471.94;;;24.57
26158;BMP280;67284;44.782;10.282;2023-08-12T00:12:42;101475.59;;;24.54
26158;BMP280;67284;44.782;10.282;2023-08-12T00:17:34;101477.59;;;24.49
26158;BMP280;67284;44.782;10.282;2023-08-12T00:22:27;101464.81;;;24.43
26158;BMP280;67284;44.782;10.282;2023-08-12T00:27:19;101471.16;;;24.39
26158;BMP280;67284;44.782;10.282;2023-08-12T00:32:11;101458.31;;;24.33
26158;BMP280;67284;44.782;10.282;2023-08-12T00:37:03;101459.41;;;24.29
26158;BMP280;67284;44.782;10.282;2023-08-12T00:42:09;101462.19;;;24.26
26158;BMP280;67284;44.782;10.282;2023-08-12T00:47:01;101459.75;;;24.23
26158;BMP280;67284;44.782;10.282;2023-08-12T00:51:54;101465.16;;;24.20
26158;BMP280;67284;44.782;10.282;2023-08-12T00:56:48;101461.00;;;24.16
26158;BMP280;67284;44.782;10.282;2023-08-12T01:01:44;101453.28;;;24.13
26158;BMP280;67284;44.782;10.282;2023-08-12T01:06:36;101455.16;;;24.11
26158;BMP280;67284;44.782;10.282;2023-08-12T01:16:47;101455.63;;;24.03
26158;BMP280;67284;44.782;10.282;2023-08-12T01:21:43;101455.78;;;24.00
26158;BMP280;67284;44.782;10.282;2023-08-12T01:26:35;101450.78;;;23.95
26158;BMP280;67284;44.782;10.282;2023-08-12T01:31:55;101455.13;;;23.96
26158;BMP280;67284;44.782;10.282;2023-08-12T01:36:54;101459.50;;;23.96
26158;BMP280;67284;44.782;10.282;2023-08-12T01:41:47;101455.25;;;23.93
26158;BMP280;67284;44.782;10.282;2023-08-12T01:46:39;101452.72;;;23.92
26158;BMP280;67284;44.782;10.282;2023-08-12T01:51:30;101461.56;;;23.91
26158;BMP280;67284;44.782;10.282;2023-08-12T01:56:22;101456.44;;;23.88
26158;BMP280;67284;44.782;10.282;2023-08-12T02:01:14;101449.41;;;23.88
26158;BMP280;67284;44.782;10.282;2023-08-12T02:06:06;101445.16;;;23.86
26158;BMP280;67284;44.782;10.282;2023-08-12T02:10:58;101457.63;;;23.82
26158;BMP280;67284;44.782;10.282;2023-08-12T02:15:50;101456.84;;;23.80
26158;BMP280;67284;44.782;10.282;2023-08-12T02:20:42;101456.06;;;23.78
26158;BMP280;67284;44.782;10.282;2023-08-12T02:25:34;101459.72;;;23.76
26158;BMP280;67284;44.782;10.282;2023-08-12T02:30:28;101449.34;;;23.73
26158;BMP280;67284;44.782;10.282;2023-08-12T02:35:20;101453.78;;;23.72
26158;BMP280;67284;44.782;10.282;2023-08-12T02:40:12;101453.81;;;23.71
26158;BMP280;67284;44.782;10.282;2023-08-12T02:45:04;101452.16;;;23.70
26158;BMP280;67284;44.782;10.282;2023-08-12T02:49:56;101449.59;;;23.68
26158;BMP280;67284;44.782;10.282;2023-08-12T02:54:48;101446.19;;;23.66
26158;BMP280;67284;44.782;10.282;2023-08-12T02:59:40;101440.97;;;23.65
26158;BMP280;67284;44.782;10.282;2023-08-12T03:04:32;101441.91;;;23.64
26158;BMP280;67284;44.782;10.282;2023-08-12T03:09:24;101431.38;;;23.64
26158;BMP280;67284;44.782;10.282;2023-08-12T03:14:16;101431.38;;;23.64
26158;BMP280;67284;44.782;10.282;2023-08-12T03:19:09;101433.19;;;23.63
26158;BMP280;67284;44.782;10.282;2023-08-12T03:24:01;101430.56;;;23.63
26158;BMP280;67284;44.782;10.282;2023-08-12T03:28:53;101435.88;;;23.62
26158;BMP280;67284;44.782;10.282;2023-08-12T03:33:45;101435.97;;;23.60
26158;BMP280;67284;44.782;10.282;2023-08-12T03:38:38;101445.63;;;23.60
26158;BMP280;67284;44.782;10.282;2023-08-12T03:43:34;101448.34;;;23.58
26158;BMP280;67284;44.782;10.282;2023-08-12T03:48:41;101453.69;;;23.57
26158;BMP280;67284;44.782;10.282;2023-08-12T03:53:35;101447.47;;;23.58
26158;BMP280;67284;44.782;10.282;2023-08-12T03:58:27;101442.22;;;23.58
26158;BMP280;67284;44.782;10.282;2023-08-12T04:03:19;101437.91;;;23.57
26158;BMP280;67284;44.782;10.282;2023-08-12T04:08:11;101445.81;;;23.57
26158;BMP280;67284;44.782;10.282;2023-08-12T04:13:03;101440.53;;;23.57
26158;BMP280;67284;44.782;10.282;2023-08-12T04:17:57;101438.75;;;23.57
26158;BMP280;67284;44.782;10.282;2023-08-12T04:22:50;101429.16;;;23.56
26158;BMP280;67284;44.782;10.282;2023-08-12T04:27:42;101434.34;;;23.58
26158;BMP280;67284;44.782;10.282;2023-08-12T04:32:34;101440.38;;;23.60
26158;BMP280;67284;44.782;10.282;2023-08-12T04:37:27;101442.16;;;23.59
26158;BMP280;67284;44.782;10.282;2023-08-12T04:42:20;101428.16;;;23.59
26158;BMP280;67284;44.782;10.282;2023-08-12T04:47:13;101446.47;;;23.60
26158;BMP280;67284;44.782;10.282;2023-08-12T04:52:05;101439.50;;;23.59
26158;BMP280;67284;44.782;10.282;2023-08-12T04:56:58;101437.69;;;23.61
26158;BMP280;67284;44.782;10.282;2023-08-12T05:01:51;101449.94;;;23.61
26158;BMP280;67284;44.782;10.282;2023-08-12T05:06:56;101443.78;;;23.62
26158;BMP280;67284;44.782;10.282;2023-08-12T05:11:49;101454.28;;;23.62
26158;BMP280;67284;44.782;10.282;2023-08-12T05:16:41;101449.03;;;23.62
26158;BMP280;67284;44.782;10.282;2023-08-12T05:21:33;101449.03;;;23.62
26158;BMP280;67284;44.782;10.282;2023-08-12T05:26:25;101452.56;;;23.61
26158;BMP280;67284;44.782;10.282;2023-08-12T05:31:17;101459.53;;;23.62
26158;BMP280;67284;44.782;10.282;2023-08-12T05:36:09;101459.53;;;23.62
26158;BMP280;67284;44.782;10.282;2023-08-12T05:41:01;101463.88;;;23.63
26158;BMP280;67284;44.782;10.282;2023-08-12T05:45:55;101460.38;;;23.62
26158;BMP280;67284;44.782;10.282;2023-08-12T05:50:47;101467.34;;;23.63
26158;BMP280;67284;44.782;10.282;2023-08-12T05:55:39;101480.38;;;23.65
26158;BMP280;67284;44.782;10.282;2023-08-12T06:00:30;101478.63;;;23.65
26158;BMP280;67284;44.782;10.282;2023-08-12T06:05:22;101488.28;;;23.65
26158;BMP280;67284;44.782;10.282;2023-08-12T06:10:14;101489.19;;;23.64
26158;BMP280;67284;44.782;10.282;2023-08-12T06:15:06;101487.38;;;23.66
26158;BMP280;67284;44.782;10.282;2023-08-12T06:19:58;101498.72;;;23.66
26158;BMP280;67284;44.782;10.282;2023-08-12T06:24:50;101497.72;;;23.69
26158;BMP280;67284;44.782;10.282;2023-08-12T06:29:41;101482.97;;;23.66
26158;BMP280;67284;44.782;10.282;2023-08-12T06:34:33;101491.81;;;23.64
26158;BMP280;67284;44.782;10.282;2023-08-12T06:39:25;101483.88;;;23.65
26158;BMP280;67284;44.782;10.282;2023-08-12T06:44:17;101474.25;;;23.66
26158;BMP280;67284;44.782;10.282;2023-08-12T06:49:09;101479.56;;;23.64
26158;BMP280;67284;44.782;10.282;2023-08-12T06:54:00;101468.13;;;23.65
26158;BMP280;67284;44.782;10.282;2023-08-12T06:58:52;101473.34;;;23.67
26158;BMP280;67284;44.782;10.282;2023-08-12T07:03:44;101476.88;;;23.66
26158;BMP280;67284;44.782;10.282;2023-08-12T07:08:36;101476.88;;;23.66
26158;BMP280;67284;44.782;10.282;2023-08-12T07:13:28;101478.59;;;23.67
26158;BMP280;67284;44.782;10.282;2023-08-12T07:18:20;101481.97;;;23.69
26158;BMP280;67284;44.782;10.282;2023-08-12T07:23:11;101484.50;;;23.70
26158;BMP280;67284;44.782;10.282;2023-08-12T07:28:03;101484.44;;;23.72
26158;BMP280;67284;44.782;10.282;2023-08-12T07:32:55;101476.47;;;23.73
26158;BMP280;67284;44.782;10.282;2023-08-12T07:37:47;101473.75;;;23.75
26158;BMP280;67284;44.782;10.282;2023-08-12T07:42:39;101478.09;;;23.76
26158;BMP280;67284;44.782;10.282;2023-08-12T07:47:31;101472.84;;;23.76
26158;BMP280;67284;44.782;10.282;2023-08-12T07:52:23;101482.28;;;23.80
26158;BMP280;67284;44.782;10.282;2023-08-12T07:57:15;101475.22;;;23.80
26158;BMP280;67284;44.782;10.282;2023-08-12T08:02:06;101479.47;;;23.83
26158;BMP280;67284;44.782;10.282;2023-08-12T08:06:58;101472.44;;;23.83
26158;BMP280;67284;44.782;10.282;2023-08-12T08:11:50;101474.22;;;23.83
26158;BMP280;67284;44.782;10.282;2023-08-12T08:16:44;101471.53;;;23.84
26158;BMP280;67284;44.782;10.282;2023-08-12T08:21:36;101470.44;;;23.88
26158;BMP280;67284;44.782;10.282;2023-08-12T08:26:28;101465.09;;;23.90
26158;BMP280;67284;44.782;10.282;2023-08-12T08:31:20;101459.69;;;23.93
26158;BMP280;67284;44.782;10.282;2023-08-12T08:36:12;101462.06;;;23.97
26158;BMP280;67284;44.782;10.282;2023-08-12T08:41:05;101462.94;;;23.98
26158;BMP280;67284;44.782;10.282;2023-08-12T08:46:01;101465.88;;;24.07
26158;BMP280;67284;44.782;10.282;2023-08-12T08:50:53;101457.91;;;24.08
26158;BMP280;67284;44.782;10.282;2023-08-12T08:55:46;101456.84;;;24.12
26158;BMP280;67284;44.782;10.282;2023-08-12T09:00:40;101441.06;;;24.12
26158;BMP280;67284;44.782;10.282;2023-08-12T09:05:33;101443.31;;;24.20
26158;BMP280;67284;44.782;10.282;2023-08-12T09:10:27;101457.38;;;24.19
26158;BMP280;67284;44.782;10.282;2023-08-12T09:15:20;101444.06;;;24.22
26158;BMP280;67284;44.782;10.282;2023-08-12T09:20:12;101445.09;;;24.35
26158;BMP280;67284;44.782;10.282;2023-08-12T09:25:04;101439.44;;;24.42
26158;BMP280;67284;44.782;10.282;2023-08-12T09:29:56;101434.09;;;24.44
26158;BMP280;67284;44.782;10.282;2023-08-12T09:34:53;101439.78;;;24.52
26158;BMP280;67284;44.782;10.282;2023-08-12T09:39:47;101435.59;;;24.63
26158;BMP280;67284;44.782;10.282;2023-08-12T09:44:40;101431.03;;;24.66
26158;BMP280;67284;44.782;10.282;2023-08-12T09:49:32;101430.69;;;24.72
26158;BMP280;67284;44.782;10.282;2023-08-12T09:54:28;101429.03;;;24.85
26158;BMP280;67284;44.782;10.282;2023-08-12T09:59:21;101425.41;;;24.88
26158;BMP280;67284;44.782;10.282;2023-08-12T10:04:14;101429.28;;;24.96
26158;BMP280;67284;44.782;10.282;2023-08-12T10:09:09;101421.06;;;25.02
26158;BMP280;67284;44.782;10.282;2023-08-12T10:14:03;101412.06;;;25.06
26158;BMP280;67284;44.782;10.282;2023-08-12T10:18:56;101401.00;;;25.15
26158;BMP280;67284;44.782;10.282;2023-08-12T10:23:50;101398.28;;;25.17
26158;BMP280;67284;44.782;10.282;2023-08-12T10:28:42;101385.66;;;25.21
26158;BMP280;67284;44.782;10.282;2023-08-12T10:33:41;101378.72;;;25.34
26158;BMP280;67284;44.782;10.282;2023-08-12T10:38:33;101375.38;;;25.46
26158;BMP280;67284;44.782;10.282;2023-08-12T10:43:26;101371.44;;;25.53
26158;BMP280;67284;44.782;10.282;2023-08-12T10:48:24;101366.81;;;25.57
26158;BMP280;67284;44.782;10.282;2023-08-12T10:53:29;101355.72;;;25.66
26158;BMP280;67284;44.782;10.282;2023-08-12T10:58:25;101356.41;;;25.69
26158;BMP280;67284;44.782;10.282;2023-08-12T11:03:18;101357.53;;;25.79
26158;BMP280;67284;44.782;10.282;2023-08-12T11:08:13;101355.47;;;25.84
26158;BMP280;67284;44.782;10.282;2023-08-12T11:13:19;101340.38;;;25.86
26158;BMP280;67284;44.782;10.282;2023-08-12T11:18:13;101336.91;;;25.85
26158;BMP280;67284;44.782;10.282;2023-08-12T11:23:06;101323.25;;;25.93
26158;BMP280;67284;44.782;10.282;2023-08-12T11:27:59;101323.63;;;25.87
26158;BMP280;67284;44.782;10.282;2023-08-12T11:32:53;101322.81;;;25.86
26158;BMP280;67284;44.782;10.282;2023-08-12T11:37:50;101318.25;;;25.88
26158;BMP280;67284;44.782;10.282;2023-08-12T11:42:44;101305.00;;;25.90
26158;BMP280;67284;44.782;10.282;2023-08-12T11:47:40;101294.91;;;25.96
26158;BMP280;67284;44.782;10.282;2023-08-12T11:52:32;101292.50;;;26.06
26158;BMP280;67284;44.782;10.282;2023-08-12T11:57:25;101282.22;;;26.15
26158;BMP280;67284;44.782;10.282;2023-08-12T12:02:17;101275.50;;;26.23
26158;BMP280;67284;44.782;10.282;2023-08-12T12:07:28;101268.16;;;26.28
26158;BMP280;67284;44.782;10.282;2023-08-12T12:12:23;101268.09;;;26.30
26158;BMP280;67284;44.782;10.282;2023-08-12T12:17:16;101260.91;;;26.32
26158;BMP280;67284;44.782;10.282;2023-08-12T12:22:08;101264.53;;;26.43
26158;BMP280;67284;44.782;10.282;2023-08-12T12:26:59;101258.31;;;26.44
26158;BMP280;67284;44.782;10.282;2023-08-12T12:31:51;101265.09;;;26.48
26158;BMP280;67284;44.782;10.282;2023-08-12T12:36:43;101247.34;;;26.50
26158;BMP280;67284;44.782;10.282;2023-08-12T12:41:35;101247.06;;;26.55
26158;BMP280;67284;44.782;10.282;2023-08-12T12:46:27;101243.44;;;26.56
26158;BMP280;67284;44.782;10.282;2023-08-12T12:51:19;101244.31;;;26.56
26158;BMP280;67284;44.782;10.282;2023-08-12T12:56:11;101239.63;;;26.47
26158;BMP280;67284;44.782;10.282;2023-08-12T13:01:04;101241.69;;;26.56
26158;BMP280;67284;44.782;10.282;2023-08-12T13:05:56;101234.91;;;26.52
26158;BMP280;67284;44.782;10.282;2023-08-12T13:10:49;101227.75;;;26.67
26158;BMP280;67284;44.782;10.282;2023-08-12T13:15:41;101225.66;;;26.72
26158;BMP280;67284;44.782;10.282;2023-08-12T13:20:34;101221.22;;;26.72
26158;BMP280;67284;44.782;10.282;2023-08-12T13:25:30;101208.00;;;26.72
26158;BMP280;67284;44.782;10.282;2023-08-12T13:30:23;101198.84;;;26.77
26158;BMP280;67284;44.782;10.282;2023-08-12T13:35:15;101192.50;;;26.80
26158;BMP280;67284;44.782;10.282;2023-08-12T13:40:07;101186.28;;;26.93
26158;BMP280;67284;44.782;10.282;2023-08-12T13:44:59;101184.06;;;27.00
26158;BMP280;67284;44.782;10.282;2023-08-12T13:49:51;101178.13;;;27.09
26158;BMP280;67284;44.782;10.282;2023-08-12T13:54:43;101168.13;;;27.01
26158;BMP280;67284;44.782;10.282;2023-08-12T13:59:35;101159.16;;;27.04
26158;BMP280;67284;44.782;10.282;2023-08-12T14:04:26;101155.63;;;26.91
26158;BMP280;67284;44.782;10.282;2023-08-12T14:09:18;101156.81;;;26.87
26158;BMP280;67284;44.782;10.282;2023-08-12T14:14:11;101161.69;;;26.93
26158;BMP280;67284;44.782;10.282;2023-08-12T14:19:03;101155.75;;;26.77
26158;BMP280;67284;44.782;10.282;2023-08-12T14:23:55;101147.09;;;26.75
26158;BMP280;67284;44.782;10.282;2023-08-12T14:28:47;101139.28;;;26.86
26158;BMP280;67284;44.782;10.282;2023-08-12T14:33:39;101136.97;;;26.94
26158;BMP280;67284;44.782;10.282;2023-08-12T14:38:31;101128.38;;;26.90
26158;BMP280;67284;44.782;10.282;2023-08-12T14:43:24;101116.47;;;26.97
26158;BMP280;67284;44.782;10.282;2023-08-12T14:48:16;101112.56;;;27.03
26158;BMP280;67284;44.782;10.282;2023-08-12T14:53:09;101111.84;;;27.01
26158;BMP280;67284;44.782;10.282;2023-08-12T14:58:01;101097.97;;;26.97
26158;BMP280;67284;44.782;10.282;2023-08-12T15:02:53;101091.34;;;26.92
26158;BMP280;67284;44.782;10.282;2023-08-12T15:07:45;101087.53;;;26.96
26158;BMP280;67284;44.782;10.282;2023-08-12T15:12:37;101089.94;;;26.99
26158;BMP280;67284;44.782;10.282;2023-08-12T15:17:29;101084.56;;;27.00
26158;BMP280;67284;44.782;10.282;2023-08-12T15:22:21;101078.88;;;26.94
26158;BMP280;67284;44.782;10.282;2023-08-12T15:27:12;101082.38;;;26.94
26158;BMP280;67284;44.782;10.282;2023-08-12T15:32:05;101077.69;;;26.98
26158;BMP280;67284;44.782;10.282;2023-08-12T15:36:57;101071.25;;;27.02
26158;BMP280;67284;44.782;10.282;2023-08-12T15:41:49;101065.00;;;27.03
26158;BMP280;67284;44.782;10.282;2023-08-12T15:46:41;101056.03;;;27.05
26158;BMP280;67284;44.782;10.282;2023-08-12T15:51:33;101060.06;;;26.98
26158;BMP280;67284;44.782;10.282;2023-08-12T15:56:26;101050.34;;;26.99
26158;BMP280;67284;44.782;10.282;2023-08-12T16:01:22;101047.25;;;27.05
26158;BMP280;67284;44.782;10.282;2023-08-12T16:06:14;101039.44;;;27.03
26158;BMP280;67284;44.782;10.282;2023-08-12T16:11:06;101034.16;;;26.91
26158;BMP280;67284;44.782;10.282;2023-08-12T16:15:58;101043.81;;;26.92
26158;BMP280;67284;44.782;10.282;2023-08-12T16:20:51;101036.41;;;26.97
26158;BMP280;67284;44.782;10.282;2023-08-12T16:25:43;101029.22;;;26.99
26158;BMP280;67284;44.782;10.282;2023-08-12T16:30:35;101022.22;;;26.98
26158;BMP280;67284;44.782;10.282;2023-08-12T16:35:26;101028.84;;;26.92
26158;BMP280;67284;44.782;10.282;2023-08-12T16:40:18;101030.06;;;26.87
26158;BMP280;67284;44.782;10.282;2023-08-12T16:45:12;101016.56;;;26.91
26158;BMP280;67284;44.782;10.282;2023-08-12T16:50:06;101024.16;;;26.96
26158;BMP280;67284;44.782;10.282;2023-08-12T16:54:58;101022.22;;;26.98
26158;BMP280;67284;44.782;10.282;2023-08-12T16:59:50;101013.94;;;26.91
26158;BMP280;67284;44.782;10.282;2023-08-12T17:04:42;101013.03;;;26.91
26158;BMP280;67284;44.782;10.282;2023-08-12T17:09:34;101011.47;;;26.88
26158;BMP280;67284;44.782;10.282;2023-08-12T17:14:29;101012.53;;;26.86
26158;BMP280;67284;44.782;10.282;2023-08-12T17:19:21;101021.19;;;26.88
26158;BMP280;67284;44.782;10.282;2023-08-12T17:24:13;101011.78;;;26.84
26158;BMP280;67284;44.782;10.282;2023-08-12T17:29:04;101019.94;;;26.81
26158;BMP280;67284;44.782;10.282;2023-08-12T17:33:56;101012.97;;;26.80
26158;BMP280;67284;44.782;10.282;2023-08-12T17:38:48;101014.97;;;26.76
26158;BMP280;67284;44.782;10.282;2023-08-12T17:43:40;101020.38;;;26.75
26158;BMP280;67284;44.782;10.282;2023-08-12T17:48:35;101018.50;;;26.77
26158;BMP280;67284;44.782;10.282;2023-08-12T17:53:27;101021.44;;;26.73
26158;BMP280;67284;44.782;10.282;2023-08-12T17:58:19;101029.69;;;26.68
26158;BMP280;67284;44.782;10.282;2023-08-12T18:03:11;101031.69;;;26.65
26158;BMP280;67284;44.782;10.282;2023-08-12T18:08:03;101036.22;;;26.63
26158;BMP280;67284;44.782;10.282;2023-08-12T18:12:55;101050.41;;;26.62
26158;BMP280;67284;44.782;10.282;2023-08-12T18:17:47;101057.78;;;26.57
26158;BMP280;67284;44.782;10.282;2023-08-12T18:22:38;101057.16;;;26.53
26158;BMP280;67284;44.782;10.282;2023-08-12T18:27:30;101074.78;;;26.53
26158;BMP280;67284;44.782;10.282;2023-08-12T18:32:22;101078.56;;;26.49
26158;BMP280;67284;44.782;10.282;2023-08-12T18:37:15;101090.09;;;26.48
26158;BMP280;67284;44.782;10.282;2023-08-12T18:42:07;101105.91;;;26.48
26158;BMP280;67284;44.782;10.282;2023-08-12T18:46:59;101106.97;;;26.45
26158;BMP280;67284;44.782;10.282;2023-08-12T18:51:51;101120.28;;;26.44
26158;BMP280;67284;44.782;10.282;2023-08-12T18:56:43;101122.16;;;26.42
26158;BMP280;67284;44.782;10.282;2023-08-12T19:01:34;101131.25;;;26.38
26158;BMP280;67284;44.782;10.282;2023-08-12T19:06:26;101149.78;;;26.36
26158;BMP280;67284;44.782;10.282;2023-08-12T19:11:18;101157.69;;;26.36
26158;BMP280;67284;44.782;10.282;2023-08-12T19:16:12;101156.97;;;26.34
26158;BMP280;67284;44.782;10.282;2023-08-12T19:21:04;101166.91;;;26.31
26158;BMP280;67284;44.782;10.282;2023-08-12T19:25:56;101176.75;;;26.27
26158;BMP280;67284;44.782;10.282;2023-08-12T19:30:48;101178.78;;;26.24
26158;BMP280;67284;44.782;10.282;2023-08-12T19:35:40;101192.13;;;26.21
26158;BMP280;67284;44.782;10.282;2023-08-12T19:40:34;101194.88;;;26.20
26158;BMP280;67284;44.782;10.282;2023-08-12T19:45:25;101199.53;;;26.16
26158;BMP280;67284;44.782;10.282;2023-08-12T19:50:17;101207.53;;;26.15
26158;BMP280;67284;44.782;10.282;2023-08-12T19:55:09;101199.84;;;26.12
26158;BMP280;67284;44.782;10.282;2023-08-12T20:00:02;101197.41;;;26.09
26158;BMP280;67284;44.782;10.282;2023-08-12T20:05:02;101198.44;;;26.06
26158;BMP280;67284;44.782;10.282;2023-08-12T20:09:54;101192.50;;;26.03
26158;BMP280;67284;44.782;10.282;2023-08-12T20:14:45;101204.97;;;26.01
26158;BMP280;67284;44.782;10.282;2023-08-12T20:19:37;101205.25;;;25.96
26158;BMP280;67284;44.782;10.282;2023-08-12T20:24:29;101202.72;;;25.95
26158;BMP280;67284;44.782;10.282;2023-08-12T20:29:21;101210.84;;;25.92
26158;BMP280;67284;44.782;10.282;2023-08-12T20:34:13;101220.63;;;25.90
26158;BMP280;67284;44.782;10.282;2023-08-12T20:39:04;101214.63;;;25.88
26158;BMP280;67284;44.782;10.282;2023-08-12T20:43:57;101220.91;;;25.85
26158;BMP280;67284;44.782;10.282;2023-08-12T20:48:48;101213.13;;;25.84
26158;BMP280;67284;44.782;10.282;2023-08-12T20:53:40;101213.41;;;25.79
26158;BMP280;67284;44.782;10.282;2023-08-12T20:58:32;101212.84;;;25.74
26158;BMP280;67284;44.782;10.282;2023-08-12T21:03:43;101208.59;;;25.72
26158;BMP280;67284;44.782;10.282;2023-08-12T21:08:34;101210.72;;;25.67
26158;BMP280;67284;44.782;10.282;2023-08-12T21:13:26;101202.97;;;25.64
26158;BMP280;67284;44.782;10.282;2023-08-12T21:18:18;101198.84;;;25.60
26158;BMP280;67284;44.782;10.282;2023-08-12T21:23:10;101202.59;;;25.56
26158;BMP280;67284;44.782;10.282;2023-08-12T21:28:02;101195.81;;;25.52
26158;BMP280;67284;44.782;10.282;2023-08-12T21:32:54;101195.09;;;25.50
26158;BMP280;67284;44.782;10.282;2023-08-12T21:37:46;101209.41;;;25.46
26158;BMP280;67284;44.782;10.282;2023-08-12T21:42:37;101200.00;;;25.42
26158;BMP280;67284;44.782;10.282;2023-08-12T21:47:29;101199.25;;;25.40
26158;BMP280;67284;44.782;10.282;2023-08-12T21:52:21;101196.81;;;25.37
26158;BMP280;67284;44.782;10.282;2023-08-12T21:57:13;101196.97;;;25.34
26158;BMP280;67284;44.782;10.282;2023-08-12T22:02:05;101199.81;;;25.31
26158;BMP280;67284;44.782;10.282;2023-08-12T22:06:56;101202.63;;;25.28
26158;BMP280;67284;44.782;10.282;2023-08-12T22:11:48;101209.78;;;25.26
26158;BMP280;67284;44.782;10.282;2023-08-12T22:16:40;101209.03;;;25.24
26158;BMP280;67284;44.782;10.282;2023-08-12T22:21:32;101203.84;;;25.23
26158;BMP280;67284;44.782;10.282;2023-08-12T22:26:24;101204.03;;;25.20
26158;BMP280;67284;44.782;10.282;2023-08-12T22:31:16;101196.25;;;25.18
26158;BMP280;67284;44.782;10.282;2023-08-12T22:36:08;101199.81;;;25.17
26158;BMP280;67284;44.782;10.282;2023-08-12T22:41:00;101187.69;;;25.15
26158;BMP280;67284;44.782;10.282;2023-08-12T22:45:52;101194.84;;;25.13
26158;BMP280;67284;44.782;10.282;2023-08-12T22:50:44;101189.66;;;25.12
26158;BMP280;67284;44.782;10.282;2023-08-12T22:55:36;101187.97;;;25.11
26158;BMP280;67284;44.782;10.282;2023-08-12T23:00:28;101191.56;;;25.10
26158;BMP280;67284;44.782;10.282;2023-08-12T23:05:20;101185.41;;;25.09
26158;BMP280;67284;44.782;10.282;2023-08-12T23:10:11;101181.22;;;25.07
26158;BMP280;67284;44.782;10.282;2023-08-12T23:15:04;101176.13;;;25.04
26158;BMP280;67284;44.782;10.282;2023-08-12T23:19:56;101179.72;;;25.03
26158;BMP280;67284;44.782;10.282;2023-08-12T23:24:47;101172.75;;;25.02
26158;BMP280;67284;44.782;10.282;2023-08-12T23:29:39;101179.00;;;24.99
26158;BMP280;67284;44.782;10.282;2023-08-12T23:34:31;101179.09;;;24.98
26158;BMP280;67284;44.782;10.282;2023-08-12T23:39:23;101168.56;;;24.98
26158;BMP280;67284;44.782;10.282;2023-08-12T23:44:15;101179.19;;;24.96
26158;BMP280;67284;44.782;10.282;2023-08-12T23:49:07;101179.28;;;24.95
26158;BMP280;67284;44.782;10.282;2023-08-12T23:53:59;101180.22;;;24.94
26158;BMP280;67284;44.782;10.282;2023-08-12T23:58:51;101181.19;;;24.93
